Last 24 Hours

Ukiah-SE (Ruddick)

Hourly Data | America/Los_Angeles
as of 5/3/26 7:26 PM PDT
Date & Time Temp (°F) RH (%) Dew Pt (°F) Wet Bulb (°F) Wind Dir (°) Wind Spd (mph) Wind Gust (mph) Solar Rad (W/m2) Leaf Wet (mins) Latest Rain (In) Daily Rain (In) Daily Min Temp (°F) Daily Max Temp (°F) Daily Leaf Wet (Hrs) Daily ETo (in)
5/3/26 - 1900 59.0 68 48.6 53.8 N | 356 5.9 11.6 20 0.0 0.00 0.00 53.3 65.5 4.5 0.092
5/3/26 - 1800 61.8 64 49.3 55.2 W | 271 5.0 11.3 105 0.0 0.00 0.00 53.3 65.5 4.5 0.090
5/3/26 - 1700 63.1 61 49.6 55.8 SW | 218 7.3 12.2 239 0.0 0.00 0.00 53.3 65.5 4.5 0.086
5/3/26 - 1600 64.0 60 49.6 56.1 SSE | 152 7.9 14.3 465 0.0 0.00 0.00 53.3 65.5 4.5 0.078
5/3/26 - 1500 62.9 61 49.2 55.5 SSE | 148 9.5 17.0 630 0.0 0.00 0.00 53.3 63.8 4.5 0.066
5/3/26 - 1400 60.9 64 48.5 54.4 SE | 140 8.4 16.0 594 0.0 0.00 0.00 53.3 63.3 4.5 0.051
5/3/26 - 1300 59.4 66 47.9 53.5 SE | 140 8.8 14.9 408 0.0 0.00 0.00 53.3 60.5 4.5 0.037
5/3/26 - 1200 58.2 69 48.0 53.1 SE | 137 7.5 13.1 380 0.0 0.00 0.00 53.3 59.5 4.5 0.027
5/3/26 - 1100 57.1 71 47.9 52.7 SSE | 154 7.9 14.3 267 0.0 0.00 0.00 53.3 57.7 4.5 0.018
5/3/26 - 1000 55.7 74 47.5 51.8 SSE | 149 6.9 12.4 182 0.0 0.00 0.00 53.3 56.6 4.5 0.011
5/3/26 - 0900 54.6 77 47.6 51.4 SSE | 147 6.3 10.7 101 0.0 0.00 0.00 53.3 55.4 4.5 0.006
5/3/26 - 0800 53.8 79 47.5 51.0 SSE | 155 4.9 8.6 39 0.0 0.00 0.00 53.3 55.2 4.5 0.003
5/3/26 - 0700 53.4 82 48.2 51.3 SE | 139 4.4 9.0 6 52.3 0.00 0.00 53.3 55.2 4.5 0.001
5/3/26 - 0600 54.2 81 48.6 51.8 SE | 128 2.8 7.1 0 60.0 0.00 0.00 53.8 55.2 3.6 0.000
5/3/26 - 0500 54.5 80 48.5 51.9 SE | 146 2.3 5.6 0 60.0 0.00 0.00 54.3 55.2 2.6 0.000
5/3/26 - 0400 55.0 78 48.3 52.1 ESE | 118 0.7 5.0 0 60.0 0.00 0.00 54.6 55.2 1.6 0.000
5/3/26 - 0300 54.7 79 48.3 51.9 NNW | 340 1.7 3.3 0 37.1 0.00 0.00 54.6 55.0 0.6 0.000
5/3/26 - 0200 54.8 78 48.2 51.9 NNW | 345 2.9 4.9 0 0.0 0.00 0.00 54.6 55.0 0.0 0.000
5/3/26 - 0100 54.9 77 47.9 51.7 NNW | 345 3.7 6.1 0 0.0 0.00 0.00 50.3 71.7 4.3 0.151
5/3/26 - 0000 55.0 76 47.7 51.7 N | 354 4.3 7.1 0 0.0 0.00 0.00 50.3 71.7 4.3 0.151
5/2/26 - 2300 54.8 77 47.7 51.6 NNW | 344 6.1 10.2 0 0.0 0.00 0.00 50.3 71.7 4.3 0.150
5/2/26 - 2200 55.6 75 47.8 52.0 N | 352 5.4 12.6 0 0.0 0.00 0.00 50.3 71.7 4.3 0.150
5/2/26 - 2100 58.0 71 48.8 53.5 N | 360 5.8 11.5 1 0.0 0.00 0.00 50.3 71.7 4.3 0.150
5/2/26 - 2000 62.6 67 51.4 56.7 SSE | 157 8.1 14.8 50 0.0 0.00 0.00 50.3 71.7 4.3 0.149
5/2/26 - 1900 65.5 61 51.8 57.9 SSE | 160 11.3 17.3 174 0.0 0.00 0.00 50.3 71.7 4.3 0.147
Max 65.5 82 51.8 57.9 - 11.3 17.3 630 60.0 0.00 0.00 54.6 71.7 4.5 0.151
Avg 57.7 72 48.6 53.2 - 5.8 10.8 146 10.8 0.00 - - - - -
Min 53.4 60 47.5 51.0 - 0.7 3.3 0 0.0 0.00 0.00 50.3 55.0 0.0 0.000
Total - - - - - - - - - 0.00 - - - - -